sensor_id;sensor_type;location;lat;lon;timestamp;temperature;humidity
7502;DHT22;3792;47.740;7.606;2023-06-24T00:01:40;18.60;99.90
7502;DHT22;3792;47.740;7.606;2023-06-24T00:04:07;18.70;99.90
7502;DHT22;3792;47.740;7.606;2023-06-24T00:06:35;18.90;99.90
7502;DHT22;3792;47.740;7.606;2023-06-24T00:09:05;18.90;99.90
7502;DHT22;3792;47.740;7.606;2023-06-24T00:11:33;19.00;99.90
7502;DHT22;3792;47.740;7.606;2023-06-24T00:14:00;18.90;99.90
7502;DHT22;3792;47.740;7.606;2023-06-24T00:16:27;18.90;99.90
7502;DHT22;3792;47.740;7.606;2023-06-24T00:18:55;18.70;99.90
7502;DHT22;3792;47.740;7.606;2023-06-24T00:21:26;18.70;99.90
7502;DHT22;3792;47.740;7.606;2023-06-24T00:23:57;18.80;99.90
7502;DHT22;3792;47.740;7.606;2023-06-24T00:26:24;18.90;99.90
7502;DHT22;3792;47.740;7.606;2023-06-24T00:28:51;18.90;99.90
7502;DHT22;3792;47.740;7.606;2023-06-24T00:31:19;19.00;99.90
7502;DHT22;3792;47.740;7.606;2023-06-24T00:33:46;19.00;99.90
7502;DHT22;3792;47.740;7.606;2023-06-24T00:36:15;19.00;99.90
7502;DHT22;3792;47.740;7.606;2023-06-24T00:38:42;19.00;99.90
7502;DHT22;3792;47.740;7.606;2023-06-24T00:41:10;19.10;99.90
7502;DHT22;3792;47.740;7.606;2023-06-24T00:43:37;19.10;99.90
7502;DHT22;3792;47.740;7.606;2023-06-24T00:46:05;19.10;99.90
7502;DHT22;3792;47.740;7.606;2023-06-24T00:48:33;19.10;99.90
7502;DHT22;3792;47.740;7.606;2023-06-24T00:51:00;19.10;99.90
7502;DHT22;3792;47.740;7.606;2023-06-24T00:53:27;19.10;99.90
7502;DHT22;3792;47.740;7.606;2023-06-24T00:55:56;19.10;99.90
7502;DHT22;3792;47.740;7.606;2023-06-24T00:58:29;19.10;99.90
7502;DHT22;3792;47.740;7.606;2023-06-24T01:00:57;19.10;99.90
7502;DHT22;3792;47.740;7.606;2023-06-24T01:03:25;19.10;99.90
7502;DHT22;3792;47.740;7.606;2023-06-24T01:05:53;19.10;99.90
7502;DHT22;3792;47.740;7.606;2023-06-24T01:08:20;19.10;99.90
7502;DHT22;3792;47.740;7.606;2023-06-24T01:10:49;19.00;99.90
7502;DHT22;3792;47.740;7.606;2023-06-24T01:13:16;19.10;99.90
7502;DHT22;3792;47.740;7.606;2023-06-24T01:15:45;19.00;99.90
7502;DHT22;3792;47.740;7.606;2023-06-24T01:18:18;19.00;99.90
7502;DHT22;3792;47.740;7.606;2023-06-24T01:20:51;19.00;99.90
7502;DHT22;3792;47.740;7.606;2023-06-24T01:23:57;18.90;99.90
7502;DHT22;3792;47.740;7.606;2023-06-24T01:26:52;18.90;99.90
7502;DHT22;3792;47.740;7.606;2023-06-24T01:29:38;18.90;99.90
7502;DHT22;3792;47.740;7.606;2023-06-24T01:32:18;18.90;99.90
7502;DHT22;3792;47.740;7.606;2023-06-24T01:34:52;18.90;99.90
7502;DHT22;3792;47.740;7.606;2023-06-24T01:37:27;18.90;99.90
7502;DHT22;3792;47.740;7.606;2023-06-24T01:40:00;18.90;99.90
7502;DHT22;3792;47.740;7.606;2023-06-24T01:42:33;18.80;99.90
7502;DHT22;3792;47.740;7.606;2023-06-24T01:45:05;18.80;99.90
7502;DHT22;3792;47.740;7.606;2023-06-24T01:47:34;18.70;99.90
7502;DHT22;3792;47.740;7.606;2023-06-24T01:50:04;18.70;99.90
7502;DHT22;3792;47.740;7.606;2023-06-24T01:52:32;18.40;99.90
7502;DHT22;3792;47.740;7.606;2023-06-24T01:55:01;17.80;99.90
7502;DHT22;3792;47.740;7.606;2023-06-24T01:57:31;17.30;99.90
7502;DHT22;3792;47.740;7.606;2023-06-24T02:00:01;17.30;99.90
7502;DHT22;3792;47.740;7.606;2023-06-24T02:02:34;17.50;99.90
7502;DHT22;3792;47.740;7.606;2023-06-24T02:05:03;17.70;99.90
7502;DHT22;3792;47.740;7.606;2023-06-24T02:07:32;17.90;99.90
7502;DHT22;3792;47.740;7.606;2023-06-24T02:10:01;18.10;99.90
7502;DHT22;3792;47.740;7.606;2023-06-24T02:12:29;18.20;99.90
7502;DHT22;3792;47.740;7.606;2023-06-24T02:14:57;18.30;99.90
7502;DHT22;3792;47.740;7.606;2023-06-24T02:17:25;18.40;99.90
7502;DHT22;3792;47.740;7.606;2023-06-24T02:19:57;18.40;99.90
7502;DHT22;3792;47.740;7.606;2023-06-24T02:22:25;18.30;99.90
7502;DHT22;3792;47.740;7.606;2023-06-24T02:24:54;18.30;99.90
7502;DHT22;3792;47.740;7.606;2023-06-24T02:27:21;18.30;99.90
7502;DHT22;3792;47.740;7.606;2023-06-24T02:29:50;18.30;99.90
7502;DHT22;3792;47.740;7.606;2023-06-24T02:32:18;18.30;99.90
7502;DHT22;3792;47.740;7.606;2023-06-24T02:34:45;18.40;99.90
7502;DHT22;3792;47.740;7.606;2023-06-24T02:37:14;18.40;99.90
7502;DHT22;3792;47.740;7.606;2023-06-24T02:39:41;18.40;99.90
7502;DHT22;3792;47.740;7.606;2023-06-24T02:42:10;18.40;99.90
7502;DHT22;3792;47.740;7.606;2023-06-24T02:44:38;18.50;99.90
7502;DHT22;3792;47.740;7.606;2023-06-24T02:47:07;18.40;99.90
7502;DHT22;3792;47.740;7.606;2023-06-24T02:49:35;18.40;99.90
7502;DHT22;3792;47.740;7.606;2023-06-24T02:52:03;18.40;99.90
7502;DHT22;3792;47.740;7.606;2023-06-24T02:54:33;18.40;99.90
7502;DHT22;3792;47.740;7.606;2023-06-24T02:57:00;18.40;99.90
7502;DHT22;3792;47.740;7.606;2023-06-24T02:59:27;18.40;99.90
7502;DHT22;3792;47.740;7.606;2023-06-24T03:01:55;18.40;99.90
7502;DHT22;3792;47.740;7.606;2023-06-24T03:04:23;18.30;99.90
7502;DHT22;3792;47.740;7.606;2023-06-24T03:06:51;18.40;99.90
7502;DHT22;3792;47.740;7.606;2023-06-24T03:09:18;18.40;99.90
7502;DHT22;3792;47.740;7.606;2023-06-24T03:11:47;18.40;99.90
7502;DHT22;3792;47.740;7.606;2023-06-24T03:14:14;18.40;99.90
7502;DHT22;3792;47.740;7.606;2023-06-24T03:16:41;18.40;99.90
7502;DHT22;3792;47.740;7.606;2023-06-24T03:19:08;18.40;99.90
7502;DHT22;3792;47.740;7.606;2023-06-24T03:21:35;18.30;99.90
7502;DHT22;3792;47.740;7.606;2023-06-24T03:24:03;18.20;99.90
7502;DHT22;3792;47.740;7.606;2023-06-24T03:26:34;18.10;99.90
7502;DHT22;3792;47.740;7.606;2023-06-24T03:29:02;18.00;99.90
7502;DHT22;3792;47.740;7.606;2023-06-24T03:31:30;18.00;99.90
7502;DHT22;3792;47.740;7.606;2023-06-24T03:33:57;18.00;99.90
7502;DHT22;3792;47.740;7.606;2023-06-24T03:36:24;18.10;99.90
7502;DHT22;3792;47.740;7.606;2023-06-24T03:38:51;17.90;99.90
7502;DHT22;3792;47.740;7.606;2023-06-24T03:41:18;17.90;99.90
7502;DHT22;3792;47.740;7.606;2023-06-24T03:43:46;17.90;99.90
7502;DHT22;3792;47.740;7.606;2023-06-24T03:46:14;17.90;99.90
7502;DHT22;3792;47.740;7.606;2023-06-24T03:48:42;18.00;99.90
7502;DHT22;3792;47.740;7.606;2023-06-24T03:51:09;17.90;99.90
7502;DHT22;3792;47.740;7.606;2023-06-24T03:53:36;17.90;99.90
7502;DHT22;3792;47.740;7.606;2023-06-24T03:56:04;17.80;99.90
7502;DHT22;3792;47.740;7.606;2023-06-24T03:58:31;17.80;99.90
7502;DHT22;3792;47.740;7.606;2023-06-24T04:00:59;17.90;99.90
7502;DHT22;3792;47.740;7.606;2023-06-24T04:03:28;17.90;99.90
7502;DHT22;3792;47.740;7.606;2023-06-24T04:05:56;18.00;99.90
7502;DHT22;3792;47.740;7.606;2023-06-24T04:08:23;17.90;99.90
7502;DHT22;3792;47.740;7.606;2023-06-24T04:10:55;17.80;99.90
7502;DHT22;3792;47.740;7.606;2023-06-24T04:13:22;17.80;99.90
7502;DHT22;3792;47.740;7.606;2023-06-24T04:15:49;17.80;99.90
7502;DHT22;3792;47.740;7.606;2023-06-24T04:18:16;17.80;99.90
7502;DHT22;3792;47.740;7.606;2023-06-24T04:20:44;17.80;99.90
7502;DHT22;3792;47.740;7.606;2023-06-24T04:23:12;17.80;99.90
7502;DHT22;3792;47.740;7.606;2023-06-24T04:25:40;17.70;99.90
7502;DHT22;3792;47.740;7.606;2023-06-24T04:28:07;17.80;99.90
7502;DHT22;3792;47.740;7.606;2023-06-24T04:30:34;17.70;99.90
7502;DHT22;3792;47.740;7.606;2023-06-24T04:33:04;17.70;99.90
7502;DHT22;3792;47.740;7.606;2023-06-24T04:35:31;17.70;99.90
7502;DHT22;3792;47.740;7.606;2023-06-24T04:37:59;17.70;99.90
7502;DHT22;3792;47.740;7.606;2023-06-24T04:40:26;17.70;99.90
7502;DHT22;3792;47.740;7.606;2023-06-24T04:42:54;17.70;99.90
7502;DHT22;3792;47.740;7.606;2023-06-24T04:45:21;17.60;99.90
7502;DHT22;3792;47.740;7.606;2023-06-24T04:47:48;17.30;99.90
7502;DHT22;3792;47.740;7.606;2023-06-24T04:50:15;17.00;99.90
7502;DHT22;3792;47.740;7.606;2023-06-24T04:52:42;17.10;99.90
7502;DHT22;3792;47.740;7.606;2023-06-24T04:55:11;17.20;99.90
7502;DHT22;3792;47.740;7.606;2023-06-24T04:57:38;17.40;99.90
7502;DHT22;3792;47.740;7.606;2023-06-24T05:00:09;17.60;99.90
7502;DHT22;3792;47.740;7.606;2023-06-24T05:02:36;17.80;99.90
7502;DHT22;3792;47.740;7.606;2023-06-24T05:05:03;18.00;99.90
7502;DHT22;3792;47.740;7.606;2023-06-24T05:07:30;18.10;99.90
7502;DHT22;3792;47.740;7.606;2023-06-24T05:09:57;18.20;99.90
7502;DHT22;3792;47.740;7.606;2023-06-24T05:12:26;18.30;99.90
7502;DHT22;3792;47.740;7.606;2023-06-24T05:14:53;18.40;99.90
7502;DHT22;3792;47.740;7.606;2023-06-24T05:17:20;18.50;99.90
7502;DHT22;3792;47.740;7.606;2023-06-24T05:19:47;18.40;99.90
7502;DHT22;3792;47.740;7.606;2023-06-24T05:22:14;18.40;99.90
7502;DHT22;3792;47.740;7.606;2023-06-24T05:24:41;18.30;99.90
7502;DHT22;3792;47.740;7.606;2023-06-24T05:27:09;18.30;99.90
7502;DHT22;3792;47.740;7.606;2023-06-24T05:29:37;18.40;99.90
7502;DHT22;3792;47.740;7.606;2023-06-24T05:32:05;18.60;99.90
7502;DHT22;3792;47.740;7.606;2023-06-24T05:34:32;18.80;99.90
7502;DHT22;3792;47.740;7.606;2023-06-24T05:37:00;19.00;99.90
7502;DHT22;3792;47.740;7.606;2023-06-24T05:39:28;19.00;99.90
7502;DHT22;3792;47.740;7.606;2023-06-24T05:41:55;19.10;99.90
7502;DHT22;3792;47.740;7.606;2023-06-24T05:44:22;19.30;99.90
7502;DHT22;3792;47.740;7.606;2023-06-24T05:46:50;19.40;99.90
7502;DHT22;3792;47.740;7.606;2023-06-24T05:49:17;19.60;99.90
7502;DHT22;3792;47.740;7.606;2023-06-24T05:51:44;19.80;99.90
7502;DHT22;3792;47.740;7.606;2023-06-24T05:54:11;19.90;99.90
7502;DHT22;3792;47.740;7.606;2023-06-24T05:56:38;20.00;99.90
7502;DHT22;3792;47.740;7.606;2023-06-24T05:59:05;20.20;99.90
7502;DHT22;3792;47.740;7.606;2023-06-24T06:01:33;20.30;99.90
7502;DHT22;3792;47.740;7.606;2023-06-24T06:04:01;20.40;99.90
7502;DHT22;3792;47.740;7.606;2023-06-24T06:06:28;20.60;99.90
7502;DHT22;3792;47.740;7.606;2023-06-24T06:08:56;20.70;99.90
7502;DHT22;3792;47.740;7.606;2023-06-24T06:11:23;20.80;99.90
7502;DHT22;3792;47.740;7.606;2023-06-24T06:13:50;20.90;99.90
7502;DHT22;3792;47.740;7.606;2023-06-24T06:16:18;21.00;99.90
7502;DHT22;3792;47.740;7.606;2023-06-24T06:18:45;21.10;99.90
7502;DHT22;3792;47.740;7.606;2023-06-24T06:21:14;21.20;99.90
7502;DHT22;3792;47.740;7.606;2023-06-24T06:23:41;21.30;99.90
7502;DHT22;3792;47.740;7.606;2023-06-24T06:26:08;21.40;99.90
7502;DHT22;3792;47.740;7.606;2023-06-24T06:28:35;21.50;99.90
7502;DHT22;3792;47.740;7.606;2023-06-24T06:31:02;21.50;99.90
7502;DHT22;3792;47.740;7.606;2023-06-24T06:33:29;21.50;99.90
7502;DHT22;3792;47.740;7.606;2023-06-24T06:35:56;21.60;99.90
7502;DHT22;3792;47.740;7.606;2023-06-24T06:38:26;21.80;99.90
7502;DHT22;3792;47.740;7.606;2023-06-24T06:40:53;21.90;99.90
7502;DHT22;3792;47.740;7.606;2023-06-24T06:43:21;21.80;99.90
7502;DHT22;3792;47.740;7.606;2023-06-24T06:45:48;21.80;99.90
7502;DHT22;3792;47.740;7.606;2023-06-24T06:48:16;21.90;99.90
7502;DHT22;3792;47.740;7.606;2023-06-24T06:50:43;21.80;99.90
7502;DHT22;3792;47.740;7.606;2023-06-24T06:53:11;21.60;99.90
7502;DHT22;3792;47.740;7.606;2023-06-24T06:55:39;21.70;99.90
7502;DHT22;3792;47.740;7.606;2023-06-24T06:58:08;21.70;99.90
7502;DHT22;3792;47.740;7.606;2023-06-24T07:00:35;21.80;99.90
7502;DHT22;3792;47.740;7.606;2023-06-24T07:03:03;21.70;99.90
7502;DHT22;3792;47.740;7.606;2023-06-24T07:05:30;21.70;99.90
7502;DHT22;3792;47.740;7.606;2023-06-24T07:07:57;21.70;99.90
7502;DHT22;3792;47.740;7.606;2023-06-24T07:10:24;21.80;99.90
7502;DHT22;3792;47.740;7.606;2023-06-24T07:12:52;22.00;99.90
7502;DHT22;3792;47.740;7.606;2023-06-24T07:15:24;22.10;99.90
7502;DHT22;3792;47.740;7.606;2023-06-24T07:17:52;22.10;99.90
7502;DHT22;3792;47.740;7.606;2023-06-24T07:20:21;22.10;99.90
7502;DHT22;3792;47.740;7.606;2023-06-24T07:22:48;22.10;99.90
7502;DHT22;3792;47.740;7.606;2023-06-24T07:25:16;22.00;99.90
7502;DHT22;3792;47.740;7.606;2023-06-24T07:27:43;22.00;99.90
7502;DHT22;3792;47.740;7.606;2023-06-24T07:30:11;21.90;99.90
7502;DHT22;3792;47.740;7.606;2023-06-24T07:32:39;21.80;99.90
7502;DHT22;3792;47.740;7.606;2023-06-24T07:35:06;21.70;99.90
7502;DHT22;3792;47.740;7.606;2023-06-24T07:37:34;21.80;99.90
7502;DHT22;3792;47.740;7.606;2023-06-24T07:40:02;21.70;99.90
7502;DHT22;3792;47.740;7.606;2023-06-24T07:42:30;21.70;99.90
7502;DHT22;3792;47.740;7.606;2023-06-24T07:44:57;21.90;99.90
7502;DHT22;3792;47.740;7.606;2023-06-24T07:47:26;21.90;99.90
7502;DHT22;3792;47.740;7.606;2023-06-24T07:49:53;22.00;99.90
7502;DHT22;3792;47.740;7.606;2023-06-24T07:52:20;22.10;99.90
7502;DHT22;3792;47.740;7.606;2023-06-24T07:54:47;22.10;99.90
7502;DHT22;3792;47.740;7.606;2023-06-24T07:57:14;22.10;99.90
7502;DHT22;3792;47.740;7.606;2023-06-24T07:59:41;22.10;99.90
7502;DHT22;3792;47.740;7.606;2023-06-24T08:02:08;22.20;99.90
7502;DHT22;3792;47.740;7.606;2023-06-24T08:04:38;22.20;99.90
7502;DHT22;3792;47.740;7.606;2023-06-24T08:07:05;22.20;99.90
7502;DHT22;3792;47.740;7.606;2023-06-24T08:09:32;22.30;99.90
7502;DHT22;3792;47.740;7.606;2023-06-24T08:12:00;22.40;99.90
7502;DHT22;3792;47.740;7.606;2023-06-24T08:14:27;22.20;99.90
7502;DHT22;3792;47.740;7.606;2023-06-24T08:16:54;22.20;99.90
7502;DHT22;3792;47.740;7.606;2023-06-24T08:19:21;22.20;99.90
7502;DHT22;3792;47.740;7.606;2023-06-24T08:21:50;22.20;99.90
7502;DHT22;3792;47.740;7.606;2023-06-24T08:24:17;22.30;99.90
7502;DHT22;3792;47.740;7.606;2023-06-24T08:26:44;22.30;99.90
7502;DHT22;3792;47.740;7.606;2023-06-24T08:29:11;22.40;99.90
7502;DHT22;3792;47.740;7.606;2023-06-24T08:31:38;22.40;99.90
7502;DHT22;3792;47.740;7.606;2023-06-24T08:34:05;22.40;99.90
7502;DHT22;3792;47.740;7.606;2023-06-24T08:36:33;22.50;99.90
7502;DHT22;3792;47.740;7.606;2023-06-24T08:39:01;22.50;99.90
7502;DHT22;3792;47.740;7.606;2023-06-24T08:41:28;22.50;99.90
7502;DHT22;3792;47.740;7.606;2023-06-24T08:43:55;22.70;99.90
7502;DHT22;3792;47.740;7.606;2023-06-24T08:46:24;22.80;99.90
7502;DHT22;3792;47.740;7.606;2023-06-24T08:48:57;22.80;99.90
7502;DHT22;3792;47.740;7.606;2023-06-24T08:51:28;22.90;99.90
7502;DHT22;3792;47.740;7.606;2023-06-24T08:53:56;23.00;99.90
7502;DHT22;3792;47.740;7.606;2023-06-24T08:56:26;23.20;99.90
7502;DHT22;3792;47.740;7.606;2023-06-24T08:58:53;23.20;99.90
7502;DHT22;3792;47.740;7.606;2023-06-24T09:01:21;23.30;99.90
7502;DHT22;3792;47.740;7.606;2023-06-24T09:03:48;23.40;99.90
7502;DHT22;3792;47.740;7.606;2023-06-24T09:06:15;23.40;99.90
7502;DHT22;3792;47.740;7.606;2023-06-24T09:08:52;23.60;99.90
7502;DHT22;3792;47.740;7.606;2023-06-24T09:11:22;23.60;99.90
7502;DHT22;3792;47.740;7.606;2023-06-24T09:13:56;23.80;99.90
7502;DHT22;3792;47.740;7.606;2023-06-24T09:16:25;23.90;99.90
7502;DHT22;3792;47.740;7.606;2023-06-24T09:18:53;24.00;99.90
7502;DHT22;3792;47.740;7.606;2023-06-24T09:21:24;24.10;99.90
7502;DHT22;3792;47.740;7.606;2023-06-24T09:23:56;24.20;99.90
7502;DHT22;3792;47.740;7.606;2023-06-24T09:26:25;24.30;99.90
7502;DHT22;3792;47.740;7.606;2023-06-24T09:28:54;24.50;99.90
7502;DHT22;3792;47.740;7.606;2023-06-24T09:31:23;24.60;99.90
7502;DHT22;3792;47.740;7.606;2023-06-24T09:33:50;24.80;99.90
7502;DHT22;3792;47.740;7.606;2023-06-24T09:36:17;25.00;99.90
7502;DHT22;3792;47.740;7.606;2023-06-24T09:38:45;24.90;99.90
7502;DHT22;3792;47.740;7.606;2023-06-24T09:41:12;24.90;99.90
7502;DHT22;3792;47.740;7.606;2023-06-24T09:43:42;24.80;99.90
7502;DHT22;3792;47.740;7.606;2023-06-24T09:46:11;24.90;99.90
7502;DHT22;3792;47.740;7.606;2023-06-24T09:48:38;25.00;99.90
7502;DHT22;3792;47.740;7.606;2023-06-24T09:51:05;25.00;99.90
7502;DHT22;3792;47.740;7.606;2023-06-24T09:53:34;25.50;99.90
7502;DHT22;3792;47.740;7.606;2023-06-24T09:56:04;25.80;99.90
7502;DHT22;3792;47.740;7.606;2023-06-24T09:58:33;26.10;99.90
7502;DHT22;3792;47.740;7.606;2023-06-24T10:01:03;26.30;99.70
7502;DHT22;3792;47.740;7.606;2023-06-24T10:03:34;26.40;99.90
7502;DHT22;3792;47.740;7.606;2023-06-24T10:06:02;26.50;99.90
7502;DHT22;3792;47.740;7.606;2023-06-24T10:08:30;26.70;99.90
7502;DHT22;3792;47.740;7.606;2023-06-24T10:10:58;27.00;99.90
7502;DHT22;3792;47.740;7.606;2023-06-24T10:13:25;27.10;99.10
7502;DHT22;3792;47.740;7.606;2023-06-24T10:15:53;27.10;98.90
7502;DHT22;3792;47.740;7.606;2023-06-24T10:18:37;27.10;98.20
7502;DHT22;3792;47.740;7.606;2023-06-24T10:21:05;27.40;98.60
7502;DHT22;3792;47.740;7.606;2023-06-24T10:23:40;27.70;98.30
7502;DHT22;3792;47.740;7.606;2023-06-24T10:26:09;27.70;97.50
7502;DHT22;3792;47.740;7.606;2023-06-24T10:29:08;27.90;96.70
7502;DHT22;3792;47.740;7.606;2023-06-24T10:31:54;27.90;96.40
7502;DHT22;3792;47.740;7.606;2023-06-24T10:34:39;27.70;97.70
7502;DHT22;3792;47.740;7.606;2023-06-24T10:37:10;28.00;97.60
7502;DHT22;3792;47.740;7.606;2023-06-24T10:39:48;28.20;95.90
7502;DHT22;3792;47.740;7.606;2023-06-24T10:42:37;28.20;95.30
7502;DHT22;3792;47.740;7.606;2023-06-24T10:45:18;28.20;95.10
7502;DHT22;3792;47.740;7.606;2023-06-24T10:47:47;28.00;95.70
7502;DHT22;3792;47.740;7.606;2023-06-24T10:50:18;28.10;95.20
7502;DHT22;3792;47.740;7.606;2023-06-24T10:52:48;28.10;94.60
7502;DHT22;3792;47.740;7.606;2023-06-24T10:55:16;28.20;94.20
7502;DHT22;3792;47.740;7.606;2023-06-24T10:57:44;28.40;95.30
7502;DHT22;3792;47.740;7.606;2023-06-24T11:00:12;28.30;95.40
7502;DHT22;3792;47.740;7.606;2023-06-24T11:02:40;28.50;95.10
7502;DHT22;3792;47.740;7.606;2023-06-24T11:05:07;28.80;94.20
7502;DHT22;3792;47.740;7.606;2023-06-24T11:07:37;28.90;93.60
7502;DHT22;3792;47.740;7.606;2023-06-24T11:10:06;28.60;92.40
7502;DHT22;3792;47.740;7.606;2023-06-24T11:12:34;28.40;92.90
7502;DHT22;3792;47.740;7.606;2023-06-24T11:15:03;28.80;93.70
7502;DHT22;3792;47.740;7.606;2023-06-24T11:17:30;29.00;92.30
7502;DHT22;3792;47.740;7.606;2023-06-24T11:19:58;29.10;91.70
7502;DHT22;3792;47.740;7.606;2023-06-24T11:22:26;29.00;91.40
7502;DHT22;3792;47.740;7.606;2023-06-24T11:24:55;29.10;92.00
7502;DHT22;3792;47.740;7.606;2023-06-24T11:27:26;29.30;90.10
7502;DHT22;3792;47.740;7.606;2023-06-24T11:29:54;29.40;90.70
7502;DHT22;3792;47.740;7.606;2023-06-24T11:32:21;29.40;91.90
7502;DHT22;3792;47.740;7.606;2023-06-24T11:34:48;29.60;92.20
7502;DHT22;3792;47.740;7.606;2023-06-24T11:37:18;29.40;90.80
7502;DHT22;3792;47.740;7.606;2023-06-24T11:39:55;29.70;91.10
7502;DHT22;3792;47.740;7.606;2023-06-24T11:42:28;29.90;91.10
7502;DHT22;3792;47.740;7.606;2023-06-24T11:45:00;30.00;91.10
7502;DHT22;3792;47.740;7.606;2023-06-24T11:47:31;30.30;90.40
7502;DHT22;3792;47.740;7.606;2023-06-24T11:49:58;30.40;87.60
7502;DHT22;3792;47.740;7.606;2023-06-24T11:52:37;30.50;90.10
7502;DHT22;3792;47.740;7.606;2023-06-24T11:55:11;30.50;86.00
7502;DHT22;3792;47.740;7.606;2023-06-24T11:57:51;30.70;84.10
7502;DHT22;3792;47.740;7.606;2023-06-24T12:00:22;30.80;85.30
7502;DHT22;3792;47.740;7.606;2023-06-24T12:02:50;30.50;82.40
7502;DHT22;3792;47.740;7.606;2023-06-24T12:05:23;30.60;85.10
7502;DHT22;3792;47.740;7.606;2023-06-24T12:07:56;30.50;84.00
7502;DHT22;3792;47.740;7.606;2023-06-24T12:10:23;30.60;83.30
7502;DHT22;3792;47.740;7.606;2023-06-24T12:12:52;30.70;83.80
7502;DHT22;3792;47.740;7.606;2023-06-24T12:15:19;30.50;81.20
7502;DHT22;3792;47.740;7.606;2023-06-24T12:17:46;30.40;79.60
7502;DHT22;3792;47.740;7.606;2023-06-24T12:20:14;30.40;79.30
7502;DHT22;3792;47.740;7.606;2023-06-24T12:22:41;30.50;83.10
7502;DHT22;3792;47.740;7.606;2023-06-24T12:25:09;30.50;81.00
7502;DHT22;3792;47.740;7.606;2023-06-24T12:27:37;30.70;81.90
7502;DHT22;3792;47.740;7.606;2023-06-24T12:30:08;30.60;78.40
7502;DHT22;3792;47.740;7.606;2023-06-24T12:32:36;30.50;81.00
7502;DHT22;3792;47.740;7.606;2023-06-24T12:35:03;30.60;82.20
7502;DHT22;3792;47.740;7.606;2023-06-24T12:37:31;30.80;82.80
7502;DHT22;3792;47.740;7.606;2023-06-24T12:39:58;31.10;78.40
7502;DHT22;3792;47.740;7.606;2023-06-24T12:42:26;30.90;78.60
7502;DHT22;3792;47.740;7.606;2023-06-24T12:44:53;30.80;78.20
7502;DHT22;3792;47.740;7.606;2023-06-24T12:47:22;31.00;79.90
7502;DHT22;3792;47.740;7.606;2023-06-24T12:49:49;31.00;79.00
7502;DHT22;3792;47.740;7.606;2023-06-24T12:52:16;31.10;78.30
7502;DHT22;3792;47.740;7.606;2023-06-24T12:54:43;31.10;77.60
7502;DHT22;3792;47.740;7.606;2023-06-24T12:57:10;31.10;78.60
7502;DHT22;3792;47.740;7.606;2023-06-24T12:59:37;31.30;74.90
7502;DHT22;3792;47.740;7.606;2023-06-24T13:02:05;31.50;77.60
7502;DHT22;3792;47.740;7.606;2023-06-24T13:04:33;31.40;76.00
7502;DHT22;3792;47.740;7.606;2023-06-24T13:07:00;31.40;76.50
7502;DHT22;3792;47.740;7.606;2023-06-24T13:09:29;31.50;76.20
7502;DHT22;3792;47.740;7.606;2023-06-24T13:11:56;31.40;73.80
7502;DHT22;3792;47.740;7.606;2023-06-24T13:14:23;31.50;71.50
7502;DHT22;3792;47.740;7.606;2023-06-24T13:16:51;31.60;72.40
7502;DHT22;3792;47.740;7.606;2023-06-24T13:19:18;31.70;72.30
7502;DHT22;3792;47.740;7.606;2023-06-24T13:21:47;31.80;72.00
7502;DHT22;3792;47.740;7.606;2023-06-24T13:24:14;31.60;69.30
7502;DHT22;3792;47.740;7.606;2023-06-24T13:26:41;31.50;70.30
7502;DHT22;3792;47.740;7.606;2023-06-24T13:29:08;31.50;69.10
7502;DHT22;3792;47.740;7.606;2023-06-24T13:31:35;31.40;69.80
7502;DHT22;3792;47.740;7.606;2023-06-24T13:34:02;31.60;71.80
7502;DHT22;3792;47.740;7.606;2023-06-24T13:36:31;31.70;70.20
7502;DHT22;3792;47.740;7.606;2023-06-24T13:39:03;31.70;68.40
7502;DHT22;3792;47.740;7.606;2023-06-24T13:41:30;31.70;70.60
7502;DHT22;3792;47.740;7.606;2023-06-24T13:43:59;31.70;70.50
7502;DHT22;3792;47.740;7.606;2023-06-24T13:46:26;32.00;69.40
7502;DHT22;3792;47.740;7.606;2023-06-24T13:48:53;32.10;69.80
7502;DHT22;3792;47.740;7.606;2023-06-24T13:51:20;32.10;67.60
7502;DHT22;3792;47.740;7.606;2023-06-24T13:53:48;32.00;65.50
7502;DHT22;3792;47.740;7.606;2023-06-24T13:56:18;31.90;65.50
7502;DHT22;3792;47.740;7.606;2023-06-24T13:58:46;31.80;66.50
7502;DHT22;3792;47.740;7.606;2023-06-24T14:01:13;31.70;67.60
7502;DHT22;3792;47.740;7.606;2023-06-24T14:03:41;31.60;68.50
7502;DHT22;3792;47.740;7.606;2023-06-24T14:06:08;31.60;67.40
7502;DHT22;3792;47.740;7.606;2023-06-24T14:08:36;31.70;66.20
7502;DHT22;3792;47.740;7.606;2023-06-24T14:11:03;31.60;66.30
7502;DHT22;3792;47.740;7.606;2023-06-24T14:13:31;31.60;65.80
7502;DHT22;3792;47.740;7.606;2023-06-24T14:15:59;31.70;67.70
7502;DHT22;3792;47.740;7.606;2023-06-24T14:18:26;31.90;66.90
7502;DHT22;3792;47.740;7.606;2023-06-24T14:20:53;31.80;64.30
7502;DHT22;3792;47.740;7.606;2023-06-24T14:23:20;31.80;65.30
7502;DHT22;3792;47.740;7.606;2023-06-24T14:25:47;32.00;66.10
7502;DHT22;3792;47.740;7.606;2023-06-24T14:28:14;32.30;67.60
7502;DHT22;3792;47.740;7.606;2023-06-24T14:30:43;32.40;64.80
7502;DHT22;3792;47.740;7.606;2023-06-24T14:33:11;32.20;63.90
7502;DHT22;3792;47.740;7.606;2023-06-24T14:35:38;32.20;63.50
7502;DHT22;3792;47.740;7.606;2023-06-24T14:38:05;32.20;62.60
7502;DHT22;3792;47.740;7.606;2023-06-24T14:40:32;32.30;61.30
7502;DHT22;3792;47.740;7.606;2023-06-24T14:43:00;32.50;61.70
7502;DHT22;3792;47.740;7.606;2023-06-24T14:45:27;32.30;62.70
7502;DHT22;3792;47.740;7.606;2023-06-24T14:47:55;32.20;63.50
7502;DHT22;3792;47.740;7.606;2023-06-24T14:50:24;31.90;63.40
7502;DHT22;3792;47.740;7.606;2023-06-24T14:52:51;31.90;61.70
7502;DHT22;3792;47.740;7.606;2023-06-24T14:55:18;31.80;62.30
7502;DHT22;3792;47.740;7.606;2023-06-24T14:57:45;31.70;62.60
7502;DHT22;3792;47.740;7.606;2023-06-24T15:00:12;31.90;63.50
7502;DHT22;3792;47.740;7.606;2023-06-24T15:02:39;32.00;62.50
7502;DHT22;3792;47.740;7.606;2023-06-24T15:05:08;32.00;61.10
7502;DHT22;3792;47.740;7.606;2023-06-24T15:07:35;31.80;58.60
7502;DHT22;3792;47.740;7.606;2023-06-24T15:10:04;31.80;60.30
7502;DHT22;3792;47.740;7.606;2023-06-24T15:12:31;31.90;62.00
7502;DHT22;3792;47.740;7.606;2023-06-24T15:15:00;31.80;60.20
7502;DHT22;3792;47.740;7.606;2023-06-24T15:17:27;31.90;59.50
7502;DHT22;3792;47.740;7.606;2023-06-24T15:19:55;31.90;59.50
7502;DHT22;3792;47.740;7.606;2023-06-24T15:22:23;32.00;59.50
7502;DHT22;3792;47.740;7.606;2023-06-24T15:24:50;32.20;60.80
7502;DHT22;3792;47.740;7.606;2023-06-24T15:27:17;32.00;61.20
7502;DHT22;3792;47.740;7.606;2023-06-24T15:29:45;32.00;61.90
7502;DHT22;3792;47.740;7.606;2023-06-24T15:32:12;32.00;62.40
7502;DHT22;3792;47.740;7.606;2023-06-24T15:34:39;31.70;61.50
7502;DHT22;3792;47.740;7.606;2023-06-24T15:37:06;31.80;59.50
7502;DHT22;3792;47.740;7.606;2023-06-24T15:39:34;31.80;59.10
7502;DHT22;3792;47.740;7.606;2023-06-24T15:42:02;31.90;61.10
7502;DHT22;3792;47.740;7.606;2023-06-24T15:44:29;31.80;59.20
7502;DHT22;3792;47.740;7.606;2023-06-24T15:46:56;31.70;58.80
7502;DHT22;3792;47.740;7.606;2023-06-24T15:49:23;31.80;59.00
7502;DHT22;3792;47.740;7.606;2023-06-24T15:51:50;31.70;58.10
7502;DHT22;3792;47.740;7.606;2023-06-24T15:54:17;31.70;58.80
7502;DHT22;3792;47.740;7.606;2023-06-24T15:56:45;31.80;58.20
7502;DHT22;3792;47.740;7.606;2023-06-24T15:59:12;31.80;58.30
7502;DHT22;3792;47.740;7.606;2023-06-24T16:01:39;31.80;58.30
7502;DHT22;3792;47.740;7.606;2023-06-24T16:04:08;31.70;58.80
7502;DHT22;3792;47.740;7.606;2023-06-24T16:06:35;31.70;58.90
7502;DHT22;3792;47.740;7.606;2023-06-24T16:09:02;31.70;59.30
7502;DHT22;3792;47.740;7.606;2023-06-24T16:11:29;31.70;58.50